Pagina principale
METAR-TAF:

METAR-TAF

Aeroporti :

Aeroporto internazionale di Banja Luka

Banja Luka, Bosnia-Erzegovina

latitudine: 44-47N, longitudine: 017-13E, altezza: 156 m

Osservazione

Il bollettino è stato emesso 39 minuti fa, alle 15:30 UTC
Vento 3 kt da direzioni variabili
Temperature 20°C
Umidità 46%
Pressione 1019 hPa
Visibilità 10 km o più
Poco nuvoloso ad un'altezza di 4800 ft

METAR: LQBK 231530Z VRB03KT 9999 FEW048 20/08 Q1019 NOSIG

Ora: 18:09 (16:09 UTC)

Previsione

Il bollettino è stato emesso 5 ore e 9 minuti fa, alle 11:00 UTC
Previsione valida dal 23 alle 12 UTC al 24 alle 12 UTC
Vento 5 kt da nord/nord-est
Visibilità 10 km o più
Nubi sparse ad un'altezza di 4500 ft

TAF: LQBK 231100Z 2312/2412 03005KT 9999 SCT045 TX20/2313Z TN09/2403Z

Osservazioni e previsioni meteorologiche di più di 4000 aeroporti (messaggi METAR e TAF).

Le stazioni disponibili sono rappresentate dai dischi gialli e rossi sulla carta.

Puntare il mouse per vedere il nome della stazione.

Clicca sopra per visualizzare le osservazioni e previsioni meteorologiche.

Per cambiare la mappa : fare clic sui pulsanti verdi con una croce nera per ingrandire, il pulsante verde con un trattino per diminuire, o sulla freccia verde per le mappe adiacenti.


METAR-TAF: